Time;durP1;ratioP1;P1;durP2;ratioP2;P2;SDS_P1;SDS_P2;PMS_P1;PMS_P2;Temp;Humidity;BMP_temperature;BMP_pressure;BME280_temperature;BME280_humidity;BME280_pressure;Samples;Min_cycle;Max_cycle;Signal;HPM_P1;HPM_P2
2023/03/18 00:00:26;;;;;;;6.85;3.72;;;;;;;;;;5002447;28;20040;-60
2023/03/18 00:02:52;;;;;;;8.93;3.70;;;;;;;;;;5010470;28;20064;-60
2023/03/18 00:05:19;;;;;;;9.02;4.18;;;;;;;;;;5009610;28;20045;-60
2023/03/18 00:07:46;;;;;;;4.82;3.28;;;;;;;;;;5010377;28;20522;-61
2023/03/18 00:10:13;;;;;;;8.10;3.92;;;;;;;;;;5011321;28;20053;-60
2023/03/18 00:12:41;;;;;;;6.80;3.60;;;;;;;;;;5011551;28;20030;-60
2023/03/18 00:15:10;;;;;;;6.70;2.70;;;;;;;;;;5008831;28;20042;-60
2023/03/18 00:17:36;;;;;;;5.50;2.23;;;;;;;;;;5010099;28;20104;-59
2023/03/18 00:20:05;;;;;;;4.13;2.33;;;;;;;;;;5012129;28;20259;-60
2023/03/18 00:22:37;;;;;;;6.43;3.22;;;;;;;;;;5012429;28;20029;-60
2023/03/18 00:25:06;;;;;;;3.92;2.45;;;;;;;;;;5012471;28;20048;-60
2023/03/18 00:27:34;;;;;;;5.47;2.80;;;;;;;;;;5013434;28;20040;-60
2023/03/18 00:30:02;;;;;;;4.40;3.20;;;;;;;;;;5010638;28;20049;-61
2023/03/18 00:32:28;;;;;;;4.95;3.33;;;;;;;;;;5011952;28;20046;-60
2023/03/18 00:34:55;;;;;;;8.50;3.03;;;;;;;;;;5010655;28;20048;-60
2023/03/18 00:37:29;;;;;;;3.72;1.90;;;;;;;;;;5013095;28;20045;-60
2023/03/18 00:40:04;;;;;;;2.85;1.83;;;;;;;;;;5017561;28;20052;-59
2023/03/18 00:42:38;;;;;;;6.78;1.63;;;;;;;;;;5006721;28;20422;-60
2023/03/18 00:45:09;;;;;;;2.75;1.33;;;;;;;;;;5007589;28;20046;-60
2023/03/18 00:47:37;;;;;;;2.58;1.75;;;;;;;;;;5014291;28;20739;-61
2023/03/18 00:50:06;;;;;;;3.55;1.98;;;;;;;;;;5014746;28;20064;-60
2023/03/18 00:52:32;;;;;;;7.03;2.27;;;;;;;;;;5014457;28;20046;-60
2023/03/18 00:54:59;;;;;;;7.05;1.83;;;;;;;;;;5014132;28;20602;-60
2023/03/18 00:57:28;;;;;;;3.87;2.17;;;;;;;;;;5002828;28;20050;-60
2023/03/18 00:59:55;;;;;;;2.53;1.92;;;;;;;;;;5008629;28;20475;-60
2023/03/18 01:02:22;;;;;;;2.80;1.80;;;;;;;;;;5009498;28;20038;-61
2023/03/18 01:04:49;;;;;;;2.83;1.75;;;;;;;;;;5008855;28;20033;-61
2023/03/18 01:07:16;;;;;;;3.08;1.95;;;;;;;;;;5009238;28;20022;-60
2023/03/18 01:09:43;;;;;;;4.47;2.00;;;;;;;;;;5007658;28;20040;-60
2023/03/18 01:12:10;;;;;;;2.28;1.63;;;;;;;;;;5008154;28;20049;-60
2023/03/18 01:14:38;;;;;;;4.57;2.50;;;;;;;;;;5008482;28;20045;-59
2023/03/18 01:17:06;;;;;;;5.18;2.40;;;;;;;;;;5012069;28;20057;-60
2023/03/18 01:19:32;;;;;;;4.00;2.47;;;;;;;;;;5010394;28;20041;-60
2023/03/18 01:21:59;;;;;;;3.58;2.33;;;;;;;;;;5007968;28;20036;-60
2023/03/18 01:24:26;;;;;;;4.53;2.13;;;;;;;;;;5010214;28;20495;-60
2023/03/18 01:26:52;;;;;;;4.75;2.10;;;;;;;;;;5009743;28;20033;-60
2023/03/18 01:29:22;;;;;;;4.38;2.50;;;;;;;;;;5011040;28;20033;-60
2023/03/18 01:31:49;;;;;;;4.00;2.13;;;;;;;;;;5012091;28;20034;-59
2023/03/18 01:34:17;;;;;;;4.70;2.10;;;;;;;;;;5040285;28;20060;-59
2023/03/18 01:36:52;;;;;;;2.33;1.67;;;;;;;;;;5036346;28;20042;-60
2023/03/18 01:39:22;;;;;;;4.95;1.75;;;;;;;;;;5010418;28;20056;-59
2023/03/18 01:41:49;;;;;;;5.50;2.15;;;;;;;;;;5012365;28;20484;-59
2023/03/18 01:44:24;;;;;;;3.50;1.73;;;;;;;;;;5003675;28;20671;-60
2023/03/18 01:46:53;;;;;;;3.38;1.77;;;;;;;;;;4988502;28;20038;-59
2023/03/18 01:49:32;;;;;;;2.38;1.90;;;;;;;;;;5007412;28;20045;-59
2023/03/18 01:52:06;;;;;;;4.35;2.00;;;;;;;;;;5034512;28;20041;-60
2023/03/18 01:54:38;;;;;;;3.63;1.50;;;;;;;;;;5012100;28;20044;-60
2023/03/18 01:57:05;;;;;;;2.25;1.50;;;;;;;;;;5019489;28;20496;-60
2023/03/18 01:59:34;;;;;;;3.22;1.65;;;;;;;;;;5010402;28;20034;-59
2023/03/18 02:02:05;;;;;;;3.15;1.60;;;;;;;;;;5010972;28;20037;-60
2023/03/18 02:04:42;;;;;;;2.80;1.40;;;;;;;;;;5010453;28;20053;-60
2023/03/18 02:07:15;;;;;;;2.95;1.38;;;;;;;;;;5012032;28;20034;-60
2023/03/18 02:09:42;;;;;;;1.75;1.23;;;;;;;;;;5010723;28;20046;-61
2023/03/18 02:12:10;;;;;;;3.15;1.92;;;;;;;;;;5013829;28;20037;-61
2023/03/18 02:14:37;;;;;;;1.33;1.23;;;;;;;;;;5011080;28;20053;-61
2023/03/18 02:17:25;;;;;;;4.35;1.35;;;;;;;;;;5011542;28;20491;-60
2023/03/18 02:20:10;;;;;;;1.77;1.23;;;;;;;;;;5013465;28;20068;-61
2023/03/18 02:22:42;;;;;;;2.50;1.20;;;;;;;;;;5012665;28;20061;-60
2023/03/18 02:25:08;;;;;;;3.35;1.20;;;;;;;;;;4997669;28;20050;-60
2023/03/18 02:27:39;;;;;;;2.38;1.15;;;;;;;;;;5010463;28;20041;-60
2023/03/18 02:30:13;;;;;;;2.15;1.20;;;;;;;;;;5010607;28;20046;-59
2023/03/18 02:32:46;;;;;;;3.33;1.30;;;;;;;;;;5008746;28;20480;-59
2023/03/18 02:35:12;;;;;;;1.70;1.20;;;;;;;;;;5013276;28;20053;-59
2023/03/18 02:37:39;;;;;;;1.83;1.20;;;;;;;;;;5012913;28;20040;-60
2023/03/18 02:40:21;;;;;;;4.57;1.50;;;;;;;;;;5013006;28;20440;-60
2023/03/18 02:42:48;;;;;;;2.28;1.10;;;;;;;;;;5028868;28;20065;-60
2023/03/18 02:45:39;;;;;;;3.28;1.40;;;;;;;;;;5009358;28;20500;-60
2023/03/18 02:48:16;;;;;;;2.42;1.20;;;;;;;;;;5009491;28;20411;-60
2023/03/18 02:50:42;;;;;;;2.20;1.40;;;;;;;;;;5014727;28;20061;-60
2023/03/18 02:53:11;;;;;;;4.43;1.30;;;;;;;;;;5016587;28;20029;-60
2023/03/18 02:55:38;;;;;;;2.70;1.37;;;;;;;;;;5019839;28;20056;-60
2023/03/18 02:58:04;;;;;;;3.63;1.30;;;;;;;;;;5012414;28;20293;-60
2023/03/18 03:00:31;;;;;;;1.45;1.27;;;;;;;;;;5008843;28;20025;-60
2023/03/18 03:02:57;;;;;;;2.65;1.52;;;;;;;;;;5010927;28;20057;-60
2023/03/18 03:05:23;;;;;;;2.38;1.50;;;;;;;;;;5013206;28;20137;-61
2023/03/18 03:07:50;;;;;;;3.20;1.50;;;;;;;;;;5010668;28;20042;-60
2023/03/18 03:10:16;;;;;;;1.58;1.35;;;;;;;;;;4991785;28;20026;-60
2023/03/18 03:12:44;;;;;;;2.58;1.40;;;;;;;;;;5009779;28;20064;-59
2023/03/18 03:15:10;;;;;;;3.67;1.50;;;;;;;;;;5011116;28;20040;-60
2023/03/18 03:17:42;;;;;;;2.05;1.40;;;;;;;;;;5011743;28;20483;-60
2023/03/18 03:20:09;;;;;;;3.28;1.65;;;;;;;;;;5010667;28;20065;-60
2023/03/18 03:22:36;;;;;;;2.10;1.60;;;;;;;;;;5010666;28;20042;-59
2023/03/18 03:25:02;;;;;;;2.15;1.50;;;;;;;;;;5016924;28;20025;-60
2023/03/18 03:27:28;;;;;;;3.10;1.50;;;;;;;;;;5011011;28;20030;-60
2023/03/18 03:29:54;;;;;;;1.45;1.33;;;;;;;;;;5013240;28;20046;-59
2023/03/18 03:32:21;;;;;;;2.15;1.70;;;;;;;;;;5014508;28;20034;-59
2023/03/18 03:34:49;;;;;;;1.83;1.40;;;;;;;;;;5007962;28;20057;-60
2023/03/18 03:37:16;;;;;;;4.05;1.88;;;;;;;;;;5011273;28;20447;-60
2023/03/18 03:39:43;;;;;;;2.42;1.45;;;;;;;;;;5010433;28;20057;-59
2023/03/18 03:42:10;;;;;;;4.95;1.50;;;;;;;;;;5009539;28;20030;-60
2023/03/18 03:44:36;;;;;;;2.92;1.63;;;;;;;;;;5014230;28;20060;-59
2023/03/18 03:47:03;;;;;;;3.38;1.40;;;;;;;;;;5017082;28;20399;-60
2023/03/18 03:49:29;;;;;;;3.30;1.40;;;;;;;;;;5015871;28;20045;-60
2023/03/18 03:51:57;;;;;;;3.15;1.50;;;;;;;;;;5016001;28;20447;-60
2023/03/18 03:54:24;;;;;;;2.45;1.50;;;;;;;;;;5013604;28;20032;-60
2023/03/18 03:56:51;;;;;;;2.20;1.40;;;;;;;;;;5008603;28;20042;-59
2023/03/18 03:59:18;;;;;;;2.97;1.55;;;;;;;;;;5007611;28;20054;-59
2023/03/18 04:02:04;;;;;;;1.65;1.30;;;;;;;;;;5010206;28;20047;-59
2023/03/18 04:04:31;;;;;;;2.80;1.40;;;;;;;;;;5009312;28;20030;-60
2023/03/18 04:06:58;;;;;;;1.67;1.40;;;;;;;;;;5010108;28;20539;-60
2023/03/18 04:09:24;;;;;;;3.17;1.50;;;;;;;;;;5007731;28;20045;-60
2023/03/18 04:11:50;;;;;;;2.20;1.30;;;;;;;;;;5009613;28;20041;-59
2023/03/18 04:14:16;;;;;;;3.75;1.58;;;;;;;;;;5010497;28;20085;-60
2023/03/18 04:16:43;;;;;;;2.80;1.52;;;;;;;;;;5007642;28;20109;-60
2023/03/18 04:19:10;;;;;;;3.20;1.48;;;;;;;;;;5008728;28;20530;-59
2023/03/18 04:21:36;;;;;;;1.90;1.30;;;;;;;;;;5011494;28;20382;-60
2023/03/18 04:24:03;;;;;;;3.05;1.35;;;;;;;;;;5008682;28;20039;-61
2023/03/18 04:26:30;;;;;;;2.67;1.50;;;;;;;;;;5010781;28;20026;-60
2023/03/18 04:29:00;;;;;;;;;;;;;;;;;;5011402;28;20033;-59
2023/03/18 04:31:26;;;;;;;2.78;1.42;;;;;;;;;;5013462;28;19921;-59
2023/03/18 04:33:53;;;;;;;2.35;1.50;;;;;;;;;;5015185;28;20041;-60
2023/03/18 04:36:19;;;;;;;3.30;1.60;;;;;;;;;;5008332;28;20054;-60
2023/03/18 04:38:45;;;;;;;2.22;1.50;;;;;;;;;;4992394;28;20045;-61
2023/03/18 04:41:11;;;;;;;3.33;1.60;;;;;;;;;;4992125;28;20036;-60
2023/03/18 04:43:37;;;;;;;9.25;1.65;;;;;;;;;;5014623;28;20162;-59
2023/03/18 04:46:04;;;;;;;2.70;1.38;;;;;;;;;;5013814;28;20064;-60
2023/03/18 04:48:31;;;;;;;3.08;1.42;;;;;;;;;;5014677;28;20045;-60
2023/03/18 04:51:01;;;;;;;1.80;1.27;;;;;;;;;;5006420;28;20046;-60
2023/03/18 04:53:30;;;;;;;1.98;1.60;;;;;;;;;;5003517;28;20499;-58
2023/03/18 04:55:56;;;;;;;3.78;1.38;;;;;;;;;;5009255;28;20057;-61
2023/03/18 04:58:28;;;;;;;4.57;1.30;;;;;;;;;;5007620;28;20038;-59
2023/03/18 05:01:08;;;;;;;5.53;2.92;;;;;;;;;;5008274;28;20066;-59
2023/03/18 05:03:37;;;;;;;2.88;1.80;;;;;;;;;;5007202;28;20556;-59
2023/03/18 05:06:05;;;;;;;1.75;1.00;;;;;;;;;;5007815;28;20061;-60
2023/03/18 05:08:50;;;;;;;2.03;1.10;;;;;;;;;;5008233;28;20042;-60
2023/03/18 05:11:18;;;;;;;3.28;1.30;;;;;;;;;;5009789;28;20045;-60
2023/03/18 05:13:44;;;;;;;2.00;1.30;;;;;;;;;;5009699;28;20684;-60
2023/03/18 05:16:12;;;;;;;1.58;1.20;;;;;;;;;;5009210;28;20522;-60
2023/03/18 05:18:40;;;;;;;2.47;1.10;;;;;;;;;;5011144;28;20121;-60
2023/03/18 05:21:08;;;;;;;2.60;1.25;;;;;;;;;;5009329;28;20488;-61
2023/03/18 05:23:37;;;;;;;2.63;1.20;;;;;;;;;;5011009;28;20411;-60
2023/03/18 05:26:04;;;;;;;3.22;1.60;;;;;;;;;;5011774;28;20431;-59
2023/03/18 05:28:32;;;;;;;2.00;1.48;;;;;;;;;;5016417;28;20488;-59
2023/03/18 05:31:19;;;;;;;4.65;2.33;;;;;;;;;;5021123;28;20234;-60
2023/03/18 05:33:46;;;;;;;3.08;2.03;;;;;;;;;;5011727;28;20041;-60
2023/03/18 05:36:13;;;;;;;6.28;1.80;;;;;;;;;;5012938;28;20064;-60
2023/03/18 05:38:51;;;;;;;3.72;1.60;;;;;;;;;;4997321;28;20137;-59
2023/03/18 05:41:18;;;;;;;4.07;2.10;;;;;;;;;;5012069;28;20037;-61
2023/03/18 05:43:45;;;;;;;2.85;1.65;;;;;;;;;;5013223;28;20059;-60
2023/03/18 05:46:11;;;;;;;3.60;1.85;;;;;;;;;;5014683;28;20037;-61
2023/03/18 05:48:51;;;;;;;3.33;1.23;;;;;;;;;;5015588;28;20047;-61
2023/03/18 05:51:17;;;;;;;3.17;1.48;;;;;;;;;;5016331;28;20052;-59
2023/03/18 05:53:45;;;;;;;3.70;1.65;;;;;;;;;;5010795;28;20037;-59
2023/03/18 05:56:19;;;;;;;3.65;2.00;;;;;;;;;;5011148;28;20064;-60
2023/03/18 05:58:50;;;;;;;10.07;4.97;;;;;;;;;;5011721;28;20046;-60
2023/03/18 06:01:26;;;;;;;8.95;3.28;;;;;;;;;;5011156;28;20041;-61
2023/03/18 06:03:52;;;;;;;7.55;2.75;;;;;;;;;;5041802;28;20045;-59
2023/03/18 06:06:19;;;;;;;5.03;2.92;;;;;;;;;;5013122;28;20113;-60
2023/03/18 06:08:45;;;;;;;13.13;4.82;;;;;;;;;;5011882;28;20046;-61
2023/03/18 06:11:12;;;;;;;9.95;4.50;;;;;;;;;;5011101;28;20042;-62
2023/03/18 06:13:40;;;;;;;6.43;3.72;;;;;;;;;;5012473;28;20050;-60
2023/03/18 06:16:07;;;;;;;6.07;2.50;;;;;;;;;;5015522;28;20044;-62
2023/03/18 06:18:34;;;;;;;2.38;1.77;;;;;;;;;;5013303;28;20034;-61
2023/03/18 06:21:00;;;;;;;1.90;1.33;;;;;;;;;;5013284;28;20048;-61
2023/03/18 06:23:26;;;;;;;3.70;1.60;;;;;;;;;;4997912;28;20033;-61
2023/03/18 06:25:54;;;;;;;3.03;1.52;;;;;;;;;;4994836;28;20510;-61
2023/03/18 06:28:27;;;;;;;4.82;1.73;;;;;;;;;;5009372;28;20030;-62
2023/03/18 06:30:57;;;;;;;5.15;1.80;;;;;;;;;;5014074;28;20052;-62
2023/03/18 06:33:24;;;;;;;5.65;3.10;;;;;;;;;;5015695;28;20052;-62
2023/03/18 06:35:52;;;;;;;6.07;1.92;;;;;;;;;;5020941;28;20048;-62
2023/03/18 06:38:18;;;;;;;5.20;2.10;;;;;;;;;;5009993;28;20034;-62
2023/03/18 06:40:46;;;;;;;4.45;2.70;;;;;;;;;;5011550;28;20050;-61
2023/03/18 06:43:13;;;;;;;6.35;3.10;;;;;;;;;;5012797;28;20522;-61
2023/03/18 06:45:41;;;;;;;7.07;3.47;;;;;;;;;;5016667;28;20037;-61
2023/03/18 06:48:09;;;;;;;9.48;3.80;;;;;;;;;;5015466;28;20136;-61
2023/03/18 06:50:39;;;;;;;5.32;3.17;;;;;;;;;;5009319;28;20068;-62
2023/03/18 06:53:11;;;;;;;5.65;2.80;;;;;;;;;;5010570;28;20573;-61
2023/03/18 06:55:38;;;;;;;5.80;3.10;;;;;;;;;;5010218;28;20040;-61
2023/03/18 06:58:05;;;;;;;5.95;2.33;;;;;;;;;;5009685;28;20049;-61
2023/03/18 07:00:41;;;;;;;3.38;2.15;;;;;;;;;;5009019;28;20049;-61
2023/03/18 07:03:14;;;;;;;2.45;1.80;;;;;;;;;;5012530;28;20124;-61
2023/03/18 07:05:41;;;;;;;6.35;2.40;;;;;;;;;;5011754;28;20057;-61
2023/03/18 07:08:09;;;;;;;5.13;2.78;;;;;;;;;;5010589;28;20057;-60
2023/03/18 07:10:35;;;;;;;8.90;4.18;;;;;;;;;;5012441;28;20042;-61
2023/03/18 07:13:09;;;;;;;5.20;3.78;;;;;;;;;;5012408;28;20053;-60
2023/03/18 07:15:37;;;;;;;7.03;3.17;;;;;;;;;;5012989;28;20493;-60
2023/03/18 07:18:05;;;;;;;4.63;2.70;;;;;;;;;;5008826;28;20034;-62
2023/03/18 07:20:33;;;;;;;3.28;2.20;;;;;;;;;;5001452;28;20057;-61
2023/03/18 07:23:00;;;;;;;6.03;2.10;;;;;;;;;;4999143;28;20423;-61
2023/03/18 07:25:28;;;;;;;5.45;1.95;;;;;;;;;;5005007;28;20480;-61
2023/03/18 07:27:56;;;;;;;4.85;1.95;;;;;;;;;;4987891;28;20045;-61
2023/03/18 07:30:23;;;;;;;4.70;2.13;;;;;;;;;;5006758;28;20033;-61
2023/03/18 07:32:50;;;;;;;3.85;2.00;;;;;;;;;;5006909;28;20044;-62
2023/03/18 07:35:16;;;;;;;6.45;2.55;;;;;;;;;;5007996;28;20030;-61
2023/03/18 07:37:42;;;;;;;5.57;2.08;;;;;;;;;;5002663;28;20030;-61
2023/03/18 07:40:10;;;;;;;8.25;4.65;;;;;;;;;;5006888;28;20044;-62
2023/03/18 07:42:37;;;;;;;4.22;2.40;;;;;;;;;;5006147;28;20053;-62
2023/03/18 07:45:05;;;;;;;8.23;4.55;;;;;;;;;;5007527;28;20038;-62
2023/03/18 07:47:31;;;;;;;4.35;2.58;;;;;;;;;;5009263;28;20416;-62
2023/03/18 07:49:57;;;;;;;3.72;2.25;;;;;;;;;;5012135;28;20037;-64
2023/03/18 07:52:24;;;;;;;1.75;1.27;;;;;;;;;;5012884;28;20042;-66
2023/03/18 07:54:51;;;;;;;4.97;2.00;;;;;;;;;;5007836;28;20053;-62
2023/03/18 07:57:17;;;;;;;5.90;3.42;;;;;;;;;;5008594;28;20037;-61
2023/03/18 07:59:44;;;;;;;7.20;2.50;;;;;;;;;;5008709;28;20148;-62
2023/03/18 08:02:13;;;;;;;4.82;3.17;;;;;;;;;;5011134;28;20060;-62
2023/03/18 08:04:39;;;;;;;5.25;2.60;;;;;;;;;;5007563;28;20042;-62
2023/03/18 08:07:06;;;;;;;5.75;2.55;;;;;;;;;;5009100;28;20404;-61
2023/03/18 08:09:33;;;;;;;9.68;4.80;;;;;;;;;;5007891;28;20129;-61
2023/03/18 08:11:59;;;;;;;14.32;5.70;;;;;;;;;;5008488;28;20109;-61
2023/03/18 08:14:25;;;;;;;5.75;2.50;;;;;;;;;;5008519;28;20037;-62
2023/03/18 08:16:51;;;;;;;4.63;1.67;;;;;;;;;;5010988;28;20034;-61
2023/03/18 08:19:18;;;;;;;2.95;1.60;;;;;;;;;;5010026;28;20045;-62
2023/03/18 08:21:44;;;;;;;1.70;0.90;;;;;;;;;;5006219;28;20050;-62
2023/03/18 08:24:10;;;;;;;3.20;1.10;;;;;;;;;;5007565;28;20046;-61
2023/03/18 08:26:37;;;;;;;1.48;1.17;;;;;;;;;;5008193;28;20267;-61
2023/03/18 08:29:03;;;;;;;2.03;1.30;;;;;;;;;;5009077;28;20021;-61
2023/03/18 08:31:29;;;;;;;3.83;1.05;;;;;;;;;;5011843;28;20046;-62
2023/03/18 08:33:57;;;;;;;2.10;1.63;;;;;;;;;;5014955;28;20060;-62
2023/03/18 08:36:23;;;;;;;2.25;1.50;;;;;;;;;;5015384;28;20053;-62
2023/03/18 08:38:50;;;;;;;1.83;1.27;;;;;;;;;;5015911;28;20073;-62
2023/03/18 08:41:17;;;;;;;7.25;2.30;;;;;;;;;;5010155;28;20050;-63
2023/03/18 08:43:43;;;;;;;5.90;1.60;;;;;;;;;;5011382;28;20049;-63
2023/03/18 08:46:10;;;;;;;3.47;1.50;;;;;;;;;;5010713;28;20049;-61
2023/03/18 08:48:36;;;;;;;3.05;1.65;;;;;;;;;;5012185;28;20495;-61
2023/03/18 08:51:04;;;;;;;6.15;2.60;;;;;;;;;;5014966;28;20492;-59
2023/03/18 08:53:30;;;;;;;3.67;2.20;;;;;;;;;;5009277;28;20037;-61
2023/03/18 08:55:56;;;;;;;2.85;1.20;;;;;;;;;;5009688;28;20026;-62
2023/03/18 08:58:22;;;;;;;4.00;1.98;;;;;;;;;;5007960;28;20029;-62
2023/03/18 09:00:49;;;;;;;2.90;1.20;;;;;;;;;;5008813;28;20034;-63
2023/03/18 09:03:15;;;;;;;1.95;1.27;;;;;;;;;;5012504;28;20041;-62
2023/03/18 09:05:41;;;;;;;1.50;1.05;;;;;;;;;;5012824;28;20137;-61
2023/03/18 09:08:07;;;;;;;1.25;0.95;;;;;;;;;;5011962;28;20029;-62
2023/03/18 09:10:34;;;;;;;2.30;1.00;;;;;;;;;;5013730;28;20041;-62
2023/03/18 09:13:00;;;;;;;1.98;1.13;;;;;;;;;;5015622;28;20356;-63
2023/03/18 09:15:26;;;;;;;2.50;1.20;;;;;;;;;;5015389;28;20073;-63
2023/03/18 09:17:53;;;;;;;3.25;1.20;;;;;;;;;;5015761;28;20037;-62
2023/03/18 09:20:20;;;;;;;5.43;2.05;;;;;;;;;;5013275;28;20045;-62
2023/03/18 09:22:46;;;;;;;13.40;5.70;;;;;;;;;;5012654;28;20160;-61
2023/03/18 09:25:13;;;;;;;5.05;2.15;;;;;;;;;;5013092;28;20041;-62
2023/03/18 09:27:39;;;;;;;11.93;5.30;;;;;;;;;;5015624;28;20029;-62
2023/03/18 09:30:06;;;;;;;6.55;3.50;;;;;;;;;;5013408;28;20037;-62
2023/03/18 09:32:32;;;;;;;1.88;1.10;;;;;;;;;;5016787;28;20033;-63
2023/03/18 09:34:58;;;;;;;3.08;1.10;;;;;;;;;;5016489;28;20034;-61
2023/03/18 09:37:25;;;;;;;2.60;1.30;;;;;;;;;;5014662;28;20034;-62
2023/03/18 09:39:51;;;;;;;3.33;2.00;;;;;;;;;;5013862;28;20038;-62
2023/03/18 09:42:55;;;;;;;2.75;1.23;;;;;;;;;;5015983;28;20081;-62
2023/03/18 09:45:31;;;;;;;2.28;1.80;;;;;;;;;;5017475;28;20053;-62
2023/03/18 09:48:21;;;;;;;3.40;1.67;;;;;;;;;;5019472;28;20049;-62
2023/03/18 09:50:53;;;;;;;5.22;2.20;;;;;;;;;;5008048;28;20403;-62
2023/03/18 09:53:22;;;;;;;3.70;1.95;;;;;;;;;;5012800;28;20034;-63
2023/03/18 09:55:54;;;;;;;4.55;1.58;;;;;;;;;;5012934;28;20392;-62
2023/03/18 09:58:28;;;;;;;2.97;1.50;;;;;;;;;;5012167;28;20038;-63
2023/03/18 10:01:03;;;;;;;2.63;1.38;;;;;;;;;;5011370;28;20091;-63
2023/03/18 10:03:36;;;;;;;3.20;1.35;;;;;;;;;;5013214;28;20026;-63
2023/03/18 10:06:06;;;;;;;6.30;2.20;;;;;;;;;;5013522;28;20056;-60
2023/03/18 10:08:51;;;;;;;7.28;2.13;;;;;;;;;;5010886;28;20046;-59
2023/03/18 10:11:35;;;;;;;6.65;2.58;;;;;;;;;;5013568;28;20053;-59
2023/03/18 10:14:14;;;;;;;6.97;2.42;;;;;;;;;;5011879;28;20040;-59
2023/03/18 10:16:54;;;;;;;10.15;2.72;;;;;;;;;;5010523;28;20034;-58
2023/03/18 10:19:21;;;;;;;4.28;2.38;;;;;;;;;;5011622;28;20030;-58
2023/03/18 10:22:03;;;;;;;6.00;3.22;;;;;;;;;;5014861;28;20041;-59
2023/03/18 10:24:33;;;;;;;7.07;2.70;;;;;;;;;;5012976;28;20045;-58
2023/03/18 10:27:18;;;;;;;8.57;2.38;;;;;;;;;;5042035;28;20042;-59
2023/03/18 10:30:16;;;;;;;5.10;1.63;;;;;;;;;;5008633;28;20037;-60
2023/03/18 10:33:09;;;;;;;3.78;1.88;;;;;;;;;;5010826;28;20057;-60
2023/03/18 10:35:42;;;;;;;4.78;1.92;;;;;;;;;;5016264;28;20045;-60
2023/03/18 10:38:25;;;;;;;3.28;1.88;;;;;;;;;;5010549;28;20046;-59
2023/03/18 10:40:52;;;;;;;6.63;3.05;;;;;;;;;;5010866;28;20058;-62
2023/03/18 10:43:22;;;;;;;5.55;2.70;;;;;;;;;;5013759;28;20068;-62
2023/03/18 10:45:56;;;;;;;3.78;1.52;;;;;;;;;;5013723;28;20464;-61
2023/03/18 10:48:41;;;;;;;3.10;1.50;;;;;;;;;;5013658;28;20042;-61
2023/03/18 10:51:38;;;;;;;3.13;1.83;;;;;;;;;;5011159;28;20057;-61
2023/03/18 10:54:31;;;;;;;3.63;2.08;;;;;;;;;;5011308;28;20045;-60
2023/03/18 10:56:57;;;;;;;4.43;1.50;;;;;;;;;;5036355;28;20046;-61
2023/03/18 10:59:27;;;;;;;4.00;2.05;;;;;;;;;;5011435;28;20493;-58
2023/03/18 11:02:12;;;;;;;3.53;1.27;;;;;;;;;;5009918;28;20045;-60
2023/03/18 11:04:46;;;;;;;4.72;1.80;;;;;;;;;;5011455;28;20042;-61
2023/03/18 11:07:18;;;;;;;5.13;1.73;;;;;;;;;;5007541;28;20034;-60
2023/03/18 11:09:45;;;;;;;4.82;1.80;;;;;;;;;;5011087;28;20046;-59
2023/03/18 11:12:22;;;;;;;8.07;2.08;;;;;;;;;;5010459;28;20053;-59
2023/03/18 11:14:49;;;;;;;3.55;1.50;;;;;;;;;;5013566;28;20388;-59
2023/03/18 11:17:26;;;;;;;9.82;2.28;;;;;;;;;;5013717;28;20050;-58
2023/03/18 11:20:23;;;;;;;5.32;1.80;;;;;;;;;;5013209;28;20038;-59
2023/03/18 11:22:54;;;;;;;6.13;1.63;;;;;;;;;;5012512;28;20053;-60
2023/03/18 11:25:25;;;;;;;7.28;1.83;;;;;;;;;;5009979;28;20443;-60
2023/03/18 11:28:02;;;;;;;4.90;2.10;;;;;;;;;;5011405;28;20049;-59
2023/03/18 11:30:34;;;;;;;7.50;2.40;;;;;;;;;;5009087;28;20652;-59
2023/03/18 11:33:10;;;;;;;6.57;3.65;;;;;;;;;;5011442;28;20069;-60
2023/03/18 11:35:42;;;;;;;8.13;3.35;;;;;;;;;;5009305;28;20029;-60
2023/03/18 11:38:20;;;;;;;4.07;2.00;;;;;;;;;;5010737;28;20057;-59
2023/03/18 11:40:46;;;;;;;4.82;2.00;;;;;;;;;;5012514;28;20458;-60
2023/03/18 11:43:22;;;;;;;7.32;2.30;;;;;;;;;;5011114;28;20053;-60
2023/03/18 11:45:59;;;;;;;4.97;1.83;;;;;;;;;;5011757;28;20045;-59
2023/03/18 11:48:40;;;;;;;6.47;1.98;;;;;;;;;;5007027;28;20040;-59
2023/03/18 11:52:03;;;;;;;2.85;1.48;;;;;;;;;;5008567;28;20034;-60
2023/03/18 11:54:46;;;;;;;3.47;1.70;;;;;;;;;;5025797;28;20041;-59
2023/03/18 11:57:22;;;;;;;6.72;1.90;;;;;;;;;;5012132;28;20040;-59
2023/03/18 12:00:28;;;;;;;5.15;1.85;;;;;;;;;;5010532;28;20507;-59
2023/03/18 12:03:07;;;;;;;4.72;1.73;;;;;;;;;;5009598;28;20025;-59
2023/03/18 12:05:33;;;;;;;;;;;;;;;;;;5007020;28;20523;-59
2023/03/18 12:08:30;;;;;;;3.42;1.67;;;;;;;;;;5010025;28;21682;-59
2023/03/18 12:11:11;;;;;;;7.22;1.90;;;;;;;;;;5006423;28;20415;-58
2023/03/18 12:13:45;;;;;;;5.47;2.13;;;;;;;;;;5005873;28;20490;-60
2023/03/18 12:16:42;;;;;;;6.68;3.75;;;;;;;;;;5009719;28;20055;-60
2023/03/18 12:19:35;;;;;;;6.07;2.58;;;;;;;;;;5003346;28;20515;-59
2023/03/18 12:22:25;;;;;;;4.32;2.38;;;;;;;;;;5010918;28;20056;-59
2023/03/18 12:25:05;;;;;;;5.30;2.50;;;;;;;;;;5006948;28;20037;-59
2023/03/18 12:27:46;;;;;;;4.93;2.30;;;;;;;;;;5008347;28;20037;-58
2023/03/18 12:30:14;;;;;;;4.88;1.77;;;;;;;;;;5007792;28;20037;-59
2023/03/18 12:32:49;;;;;;;4.97;2.20;;;;;;;;;;5005089;28;20033;-59
2023/03/18 12:35:24;;;;;;;7.57;2.20;;;;;;;;;;5007843;28;20036;-60
2023/03/18 12:38:21;;;;;;;7.10;2.15;;;;;;;;;;5005482;28;20046;-59
2023/03/18 12:40:55;;;;;;;3.65;2.00;;;;;;;;;;5007332;28;20046;-60
2023/03/18 12:43:33;;;;;;;6.50;2.53;;;;;;;;;;5009019;28;20056;-59
2023/03/18 12:46:08;;;;;;;7.13;3.90;;;;;;;;;;5008438;28;20172;-58
2023/03/18 12:48:50;;;;;;;10.10;3.25;;;;;;;;;;5008433;28;20037;-58
2023/03/18 12:51:23;;;;;;;7.13;2.55;;;;;;;;;;5009683;28;20041;-61
2023/03/18 12:53:54;;;;;;;7.00;2.60;;;;;;;;;;5008550;28;20034;-60
2023/03/18 12:56:24;;;;;;;5.50;1.98;;;;;;;;;;5008733;28;20522;-59
2023/03/18 12:59:05;;;;;;;4.97;1.95;;;;;;;;;;5010614;28;20046;-59
2023/03/18 13:01:48;;;;;;;8.90;2.33;;;;;;;;;;5008199;28;20072;-59
2023/03/18 13:04:21;;;;;;;7.75;2.45;;;;;;;;;;5006964;28;20045;-59
2023/03/18 13:06:52;;;;;;;7.43;2.28;;;;;;;;;;5008253;28;20412;-60
2023/03/18 13:09:38;;;;;;;6.28;2.65;;;;;;;;;;5008476;28;20053;-59
2023/03/18 13:12:25;;;;;;;9.50;2.47;;;;;;;;;;5032185;28;20033;-59
2023/03/18 13:15:31;;;;;;;5.32;2.25;;;;;;;;;;5010166;28;20040;-58
2023/03/18 13:18:20;;;;;;;8.30;2.47;;;;;;;;;;5006094;28;20037;-59
2023/03/18 13:20:47;;;;;;;6.40;2.38;;;;;;;;;;5011051;28;20533;-60
2023/03/18 13:23:35;;;;;;;8.70;2.45;;;;;;;;;;5009032;28;20413;-59
2023/03/18 13:26:18;;;;;;;5.78;2.30;;;;;;;;;;5008548;28;20045;-59
2023/03/18 13:29:04;;;;;;;7.80;2.60;;;;;;;;;;5013873;28;20056;-59
2023/03/18 13:31:42;;;;;;;10.68;3.60;;;;;;;;;;5007225;28;20038;-58
2023/03/18 13:34:27;;;;;;;8.73;2.40;;;;;;;;;;5031650;28;20071;-60
2023/03/18 13:37:21;;;;;;;4.93;2.53;;;;;;;;;;5006721;28;20057;-60
2023/03/18 13:40:12;;;;;;;7.88;2.75;;;;;;;;;;5006870;28;20045;-60
2023/03/18 13:42:39;;;;;;;6.03;2.80;;;;;;;;;;4988929;28;20053;-59
2023/03/18 13:45:05;;;;;;;9.25;2.80;;;;;;;;;;5005270;28;20400;-59
2023/03/18 13:47:36;;;;;;;5.55;2.50;;;;;;;;;;5003390;28;20499;-56
2023/03/18 13:50:24;;;;;;;4.97;2.22;;;;;;;;;;5008326;28;20022;-58
2023/03/18 13:52:54;;;;;;;8.18;2.50;;;;;;;;;;5006783;28;20491;-59
2023/03/18 13:55:21;;;;;;;6.38;2.30;;;;;;;;;;5010066;28;20046;-60
2023/03/18 13:58:03;;;;;;;8.40;2.95;;;;;;;;;;5009227;28;20041;-59
2023/03/18 14:00:39;;;;;;;10.35;3.22;;;;;;;;;;5009970;28;20412;-60
2023/03/18 14:03:14;;;;;;;3.88;2.35;;;;;;;;;;5014224;28;20395;-59
2023/03/18 14:05:42;;;;;;;6.85;2.58;;;;;;;;;;5013966;28;20396;-59
2023/03/18 14:08:41;;;;;;;8.40;2.88;;;;;;;;;;5014885;28;20029;-59
2023/03/18 14:11:16;;;;;;;7.13;2.55;;;;;;;;;;5014649;28;20042;-60
2023/03/18 14:13:43;;;;;;;7.35;2.70;;;;;;;;;;5014592;28;20050;-59
2023/03/18 14:16:13;;;;;;;8.63;2.40;;;;;;;;;;5012114;28;20054;-60
2023/03/18 14:18:40;;;;;;;7.28;2.42;;;;;;;;;;5010329;28;20748;-59
2023/03/18 14:21:22;;;;;;;5.65;2.00;;;;;;;;;;4997488;28;20049;-59
2023/03/18 14:24:14;;;;;;;4.25;2.00;;;;;;;;;;5010995;28;20406;-60
2023/03/18 14:26:41;;;;;;;5.38;2.22;;;;;;;;;;5017364;28;20068;-58
2023/03/18 14:29:08;;;;;;;10.60;2.20;;;;;;;;;;5014068;28;20042;-59
2023/03/18 14:31:37;;;;;;;5.60;2.72;;;;;;;;;;5017019;28;20053;-60
2023/03/18 14:34:03;;;;;;;;;;;;;;;;;;5010671;28;20125;-60
2023/03/18 14:36:51;;;;;;;6.57;2.10;;;;;;;;;;5009396;28;19917;-62
2023/03/18 14:39:32;;;;;;;6.77;2.30;;;;;;;;;;5012131;28;20034;-60
2023/03/18 14:42:05;;;;;;;12.38;2.58;;;;;;;;;;5012151;28;20042;-60
2023/03/18 14:44:40;;;;;;;8.60;3.47;;;;;;;;;;5012639;28;20388;-60
2023/03/18 14:47:17;;;;;;;6.57;2.88;;;;;;;;;;5010803;28;20038;-61
2023/03/18 14:49:49;;;;;;;6.47;2.72;;;;;;;;;;5009328;28;20030;-61
2023/03/18 14:52:29;;;;;;;8.65;3.13;;;;;;;;;;5011489;28;20045;-60
2023/03/18 14:55:04;;;;;;;5.90;2.45;;;;;;;;;;5011041;28;20049;-62
2023/03/18 14:57:30;;;;;;;5.28;2.58;;;;;;;;;;5009191;28;20029;-64
2023/03/18 14:59:59;;;;;;;9.65;2.85;;;;;;;;;;5011028;28;20395;-64
2023/03/18 15:02:36;;;;;;;7.70;2.53;;;;;;;;;;5011432;28;20053;-63
2023/03/18 15:05:04;;;;;;;10.35;2.70;;;;;;;;;;5015173;28;20064;-64
2023/03/18 15:07:34;;;;;;;9.88;2.85;;;;;;;;;;5006380;28;20041;-66
2023/03/18 15:10:04;;;;;;;6.15;2.63;;;;;;;;;;5007713;28;20061;-65